Time;durP1;ratioP1;P1;durP2;ratioP2;P2;SDS_P1;SDS_P2;PMS_P1;PMS_P2;Temp;Humidity;BMP_temperature;BMP_pressure;BME280_temperature;BME280_humidity;BME280_pressure;Samples;Min_cycle;Max_cycle;Signal;HPM_P1;HPM_P2
2023/12/03 00:00:12;;;;;;;23.10;10.48;;;-5.90;99.90;;;;;;4954093;29;20276;-82
2023/12/03 00:02:42;;;;;;;22.67;10.85;;;-6.00;99.90;;;;;;4953912;29;20251;-83
2023/12/03 00:05:10;;;;;;;26.98;12.00;;;-5.90;99.90;;;;;;4952518;29;20188;-82
2023/12/03 00:07:38;;;;;;;22.85;10.35;;;-5.90;99.90;;;;;;4951797;28;20251;-83
2023/12/03 00:10:06;;;;;;;28.10;13.50;;;-5.90;99.90;;;;;;4952780;29;20663;-82
2023/12/03 00:12:34;;;;;;;30.90;11.20;;;-5.90;99.90;;;;;;4953980;29;20209;-82
2023/12/03 00:15:01;;;;;;;23.55;10.00;;;-5.90;99.90;;;;;;4952288;29;20275;-82
2023/12/03 00:17:28;;;;;;;26.83;9.70;;;-5.90;99.90;;;;;;4953525;29;20718;-82
2023/12/03 00:19:56;;;;;;;21.30;9.02;;;-5.90;99.90;;;;;;4952382;29;20195;-81
2023/12/03 00:22:24;;;;;;;20.15;9.40;;;-5.90;99.90;;;;;;4953579;29;20204;-82
2023/12/03 00:24:52;;;;;;;23.25;9.57;;;-6.00;99.90;;;;;;4952199;29;20181;-82
2023/12/03 00:27:19;;;;;;;26.65;11.77;;;-5.90;99.90;;;;;;4953498;29;20619;-83
2023/12/03 00:29:47;;;;;;;25.50;11.15;;;-6.10;99.90;;;;;;4936573;29;20177;-82
2023/12/03 00:32:15;;;;;;;23.02;9.90;;;-6.10;99.90;;;;;;4953912;29;20565;-82
2023/12/03 00:34:43;;;;;;;25.42;10.65;;;-6.10;99.90;;;;;;4952323;29;20267;-82
2023/12/03 00:37:11;;;;;;;28.67;12.18;;;-6.10;99.90;;;;;;4936166;29;20192;-82
2023/12/03 00:39:39;;;;;;;30.13;12.23;;;-6.10;99.90;;;;;;4952007;29;20200;-82
2023/12/03 00:42:06;;;;;;;30.08;11.57;;;-6.00;99.90;;;;;;4953238;29;20209;-81
2023/12/03 00:44:34;;;;;;;25.33;10.60;;;-5.90;99.90;;;;;;4952113;28;20204;-83
2023/12/03 00:47:01;;;;;;;24.98;10.98;;;-6.10;99.90;;;;;;4951742;29;20201;-82
2023/12/03 00:49:29;;;;;;;31.13;11.93;;;-6.20;99.90;;;;;;4953232;29;20209;-83
2023/12/03 00:51:56;;;;;;;31.45;11.93;;;-6.30;99.90;;;;;;4952782;29;20228;-82
2023/12/03 00:54:24;;;;;;;30.63;12.77;;;-6.20;99.90;;;;;;4953183;29;20244;-83
2023/12/03 00:56:52;;;;;;;26.23;11.02;;;-6.10;99.90;;;;;;4948307;29;20248;-82
2023/12/03 00:59:19;;;;;;;29.23;11.52;;;-6.20;99.90;;;;;;4952987;29;20185;-82
2023/12/03 01:01:47;;;;;;;28.42;11.98;;;-6.10;99.90;;;;;;4952912;29;20184;-83
2023/12/03 01:04:14;;;;;;;27.63;11.70;;;-6.10;99.90;;;;;;4952804;29;20192;-82
2023/12/03 01:06:43;;;;;;;27.52;11.02;;;-6.10;99.90;;;;;;4952956;29;20199;-83
2023/12/03 01:09:10;;;;;;;26.90;11.73;;;-6.10;99.90;;;;;;4952805;29;20192;-81
2023/12/03 01:11:41;;;;;;;31.95;12.68;;;-6.00;99.90;;;;;;4952805;29;20278;-82
2023/12/03 01:14:09;;;;;;;27.40;11.27;;;-6.40;99.90;;;;;;4948479;29;20217;-83
2023/12/03 01:16:36;;;;;;;27.25;10.30;;;-6.50;99.90;;;;;;4933979;29;20196;-82
2023/12/03 01:19:04;;;;;;;28.90;10.85;;;-6.60;99.90;;;;;;4932983;29;20196;-83
2023/12/03 01:21:31;;;;;;;24.80;10.07;;;-6.60;99.90;;;;;;4947739;29;20193;-83
2023/12/03 01:23:59;;;;;;;19.27;8.38;;;-6.40;99.90;;;;;;4933269;29;20201;-83
2023/12/03 01:26:26;;;;;;;23.80;10.38;;;-6.50;99.90;;;;;;4933288;29;20744;-82
2023/12/03 01:28:54;;;;;;;27.77;10.40;;;-6.40;99.90;;;;;;4947930;29;20209;-82
2023/12/03 01:31:22;;;;;;;18.55;9.00;;;-6.50;99.90;;;;;;4932501;29;20690;-83
2023/12/03 01:33:49;;;;;;;20.70;8.68;;;-6.50;99.90;;;;;;4931768;29;20213;-83
2023/12/03 01:36:17;;;;;;;18.60;8.02;;;-6.60;99.90;;;;;;4947699;29;20240;-82
2023/12/03 01:38:44;;;;;;;19.30;7.93;;;-6.60;99.90;;;;;;4942858;29;20965;-83
2023/12/03 01:41:11;;;;;;;20.05;8.18;;;-6.70;99.90;;;;;;4934641;29;20220;-81
2023/12/03 01:43:50;;;;;;;22.55;8.20;;;-6.60;99.90;;;;;;4952126;29;20188;-83
2023/12/03 01:46:19;;;;;;;22.50;8.93;;;-6.50;99.90;;;;;;4952214;29;20726;-83
2023/12/03 01:48:47;;;;;;;23.13;9.57;;;-6.40;99.90;;;;;;4952130;29;20255;-82
2023/12/03 01:51:15;;;;;;;19.60;8.70;;;-6.50;99.90;;;;;;4952004;29;20259;-83
2023/12/03 01:53:43;;;;;;;20.65;8.52;;;-6.50;99.90;;;;;;4952335;29;20211;-82
2023/12/03 01:56:12;;;;;;;22.40;8.85;;;-6.50;99.90;;;;;;4951919;29;20187;-82
2023/12/03 01:58:40;;;;;;;21.85;10.00;;;-6.50;99.90;;;;;;4951905;29;20208;-83
2023/12/03 02:01:08;;;;;;;24.17;9.70;;;-6.50;99.90;;;;;;4952041;29;20184;-83
2023/12/03 02:03:36;;;;;;;23.70;8.88;;;-6.50;99.90;;;;;;4951841;29;20742;-82
2023/12/03 02:06:10;;;;;;;18.17;8.00;;;-6.50;99.90;;;;;;4950226;28;20651;-82
2023/12/03 02:08:38;;;;;;;21.08;8.27;;;-6.50;99.90;;;;;;4951789;29;20184;-82
2023/12/03 02:11:06;;;;;;;21.58;9.25;;;-6.50;99.90;;;;;;4951736;29;20231;-82
2023/12/03 02:13:38;;;;;;;21.80;9.52;;;-6.50;99.90;;;;;;4934511;29;20212;-82
2023/12/03 02:16:06;;;;;;;19.88;8.55;;;-6.50;99.90;;;;;;4934834;29;20896;-83
2023/12/03 02:18:34;;;;;;;23.27;9.52;;;-6.50;99.90;;;;;;4950435;29;20180;-82
2023/12/03 02:21:02;;;;;;;16.83;8.65;;;-6.50;99.90;;;;;;4934381;29;20193;-83
2023/12/03 02:23:31;;;;;;;23.48;8.23;;;-6.50;99.90;;;;;;4934242;29;20320;-81
2023/12/03 02:25:59;;;;;;;20.98;8.80;;;-6.50;99.90;;;;;;4951746;29;20214;-83
2023/12/03 02:28:26;;;;;;;22.77;8.38;;;-6.50;99.90;;;;;;4950362;29;20259;-83
2023/12/03 02:30:54;;;;;;;19.27;7.65;;;-6.50;99.90;;;;;;4933843;29;20197;-83
2023/12/03 02:33:21;;;;;;;19.17;7.90;;;-6.50;99.90;;;;;;4951464;29;20295;-82
2023/12/03 02:35:49;;;;;;;22.55;9.93;;;-6.50;99.90;;;;;;4934290;29;20284;-84
2023/12/03 02:38:16;;;;;;;20.83;8.10;;;-6.50;99.90;;;;;;4934257;29;20185;-83
2023/12/03 02:40:44;;;;;;;20.23;8.00;;;-6.50;99.90;;;;;;4951724;29;20929;-83
2023/12/03 02:43:11;;;;;;;22.38;7.75;;;-6.40;99.90;;;;;;4951392;29;20255;-82
2023/12/03 02:45:39;;;;;;;17.02;6.95;;;-6.40;99.90;;;;;;4951155;29;20737;-82
2023/12/03 02:48:06;;;;;;;20.83;7.03;;;-6.40;99.90;;;;;;4933963;29;20304;-82
2023/12/03 02:50:34;;;;;;;20.00;7.57;;;-6.50;99.90;;;;;;4951102;29;20228;-82
2023/12/03 02:53:01;;;;;;;20.98;6.70;;;-6.40;99.90;;;;;;4951249;29;20235;-82
2023/12/03 02:55:29;;;;;;;15.98;6.05;;;-6.50;99.90;;;;;;4951192;29;20248;-82
2023/12/03 02:57:56;;;;;;;17.85;7.85;;;-6.50;99.90;;;;;;4949736;29;20320;-82
2023/12/03 03:00:24;;;;;;;18.27;8.18;;;-6.60;99.90;;;;;;4951194;29;20193;-82
2023/12/03 03:02:53;;;;;;;17.95;7.00;;;-6.40;99.90;;;;;;4950219;28;20681;-82
2023/12/03 03:05:21;;;;;;;20.50;8.13;;;-6.40;99.90;;;;;;4947479;29;20719;-83
2023/12/03 03:07:48;;;;;;;20.27;7.68;;;-6.50;99.90;;;;;;4951368;29;20686;-82
2023/12/03 03:10:16;;;;;;;24.30;10.77;;;-6.50;99.90;;;;;;4951175;29;20185;-82
2023/12/03 03:12:43;;;;;;;22.33;10.10;;;-6.50;99.90;;;;;;4951178;29;20219;-82
2023/12/03 03:15:11;;;;;;;24.80;10.20;;;-6.60;99.90;;;;;;4950866;29;20209;-83
2023/12/03 03:17:38;;;;;;;24.85;10.65;;;-6.70;99.90;;;;;;4950891;29;20543;-82
2023/12/03 03:20:07;;;;;;;25.73;10.07;;;-6.70;99.90;;;;;;4950860;29;20733;-82
2023/12/03 03:22:34;;;;;;;26.40;11.15;;;-6.70;99.90;;;;;;4950873;29;20208;-82
2023/12/03 03:25:04;;;;;;;29.63;12.40;;;-6.70;99.90;;;;;;4951109;29;20193;-82
2023/12/03 03:27:31;;;;;;;31.70;11.77;;;-6.60;99.90;;;;;;4933847;29;20232;-82
2023/12/03 03:29:59;;;;;;;30.25;11.57;;;-6.60;99.90;;;;;;4933766;29;20208;-82
2023/12/03 03:32:27;;;;;;;28.10;12.18;;;-6.50;99.90;;;;;;4951160;29;20193;-82
2023/12/03 03:34:55;;;;;;;31.75;12.52;;;-6.60;99.90;;;;;;4933503;29;20209;-81
2023/12/03 03:37:22;;;;;;;31.80;12.48;;;-6.60;99.90;;;;;;4950180;29;20192;-82
2023/12/03 03:39:49;;;;;;;31.13;11.38;;;-6.50;99.90;;;;;;4918594;29;20757;-83
2023/12/03 03:42:17;;;;;;;33.33;13.23;;;-6.60;99.90;;;;;;4933821;29;20192;-82
2023/12/03 03:44:44;;;;;;;30.52;12.70;;;-6.50;99.90;;;;;;4953954;29;20199;-82
2023/12/03 03:47:13;;;;;;;33.20;13.43;;;-6.60;99.90;;;;;;4954215;29;20627;-82
2023/12/03 03:49:41;;;;;;;30.35;11.80;;;-6.80;99.90;;;;;;4954283;29;20189;-82
2023/12/03 03:52:08;;;;;;;28.40;11.85;;;-6.70;99.90;;;;;;4937137;29;20275;-81
2023/12/03 03:54:42;;;;;;;30.35;12.63;;;-6.60;99.90;;;;;;4954583;29;20250;-83
2023/12/03 03:57:09;;;;;;;24.85;11.07;;;-6.50;99.90;;;;;;4968697;28;20711;-83
2023/12/03 03:59:37;;;;;;;32.05;10.90;;;-6.60;99.90;;;;;;4954162;29;20280;-81
2023/12/03 04:02:04;;;;;;;28.90;11.93;;;-6.60;99.90;;;;;;4952810;29;20663;-83
2023/12/03 04:04:32;;;;;;;26.35;10.25;;;-6.60;99.90;;;;;;4917394;29;20197;-82
2023/12/03 04:06:59;;;;;;;25.08;11.23;;;-6.60;99.90;;;;;;4952028;29;20200;-82
2023/12/03 04:09:27;;;;;;;27.50;11.13;;;-6.50;99.90;;;;;;4936598;29;20283;-83
2023/12/03 04:11:55;;;;;;;27.08;10.73;;;-6.60;99.90;;;;;;4936710;29;20276;-83
2023/12/03 04:14:22;;;;;;;24.83;10.52;;;-6.60;99.90;;;;;;4934861;29;20211;-82
2023/12/03 04:16:50;;;;;;;25.48;9.85;;;-6.70;99.90;;;;;;4934697;29;20284;-82
2023/12/03 04:19:17;;;;;;;29.90;11.85;;;-6.90;99.90;;;;;;4949207;29;20194;-83
2023/12/03 04:21:45;;;;;;;23.85;9.70;;;-6.80;99.90;;;;;;4934493;29;20595;-82
2023/12/03 04:24:12;;;;;;;22.23;9.80;;;-6.80;99.90;;;;;;4948916;29;20687;-81
2023/12/03 04:26:42;;;;;;;21.40;8.65;;;-6.70;99.90;;;;;;4934437;29;20189;-83
2023/12/03 04:29:10;;;;;;;20.40;8.98;;;-6.80;99.90;;;;;;4949056;29;20822;-82
2023/12/03 04:31:37;;;;;;;22.58;8.90;;;-6.80;99.90;;;;;;4934380;29;20213;-82
2023/12/03 04:34:05;;;;;;;23.60;10.75;;;-6.80;99.90;;;;;;4934729;29;20309;-83
2023/12/03 04:36:33;;;;;;;24.85;10.85;;;-6.70;99.90;;;;;;4933057;29;20806;-83
2023/12/03 04:39:01;;;;;;;22.73;8.98;;;-6.70;99.90;;;;;;4934234;29;20186;-82
2023/12/03 04:41:35;;;;;;;22.70;9.43;;;-6.60;99.90;;;;;;4932568;29;20216;-82
2023/12/03 04:44:04;;;;;;;28.08;11.15;;;-6.80;99.90;;;;;;4933564;29;20267;-83
2023/12/03 04:46:31;;;;;;;24.55;9.65;;;-6.70;99.90;;;;;;4931978;29;20209;-82
2023/12/03 04:48:59;;;;;;;21.55;8.52;;;-6.70;99.90;;;;;;4933250;29;20281;-82
2023/12/03 04:51:26;;;;;;;25.58;9.15;;;-6.80;99.90;;;;;;4947610;29;20236;-82
2023/12/03 04:53:54;;;;;;;24.55;9.13;;;-6.80;99.90;;;;;;4932783;29;20288;-83
2023/12/03 04:56:21;;;;;;;24.27;9.15;;;-6.70;99.90;;;;;;4933559;29;20221;-83
2023/12/03 04:58:49;;;;;;;21.70;8.88;;;-6.70;99.90;;;;;;4950521;29;20211;-81
2023/12/03 05:01:19;;;;;;;20.88;8.60;;;-6.70;99.90;;;;;;4952524;29;20267;-83
2023/12/03 05:03:47;;;;;;;23.23;8.85;;;-6.80;99.90;;;;;;4951324;29;20513;-81
2023/12/03 05:06:14;;;;;;;22.45;7.60;;;-6.70;99.90;;;;;;4952779;29;20189;-82
2023/12/03 05:08:42;;;;;;;20.42;8.18;;;-6.70;99.90;;;;;;4935444;29;20184;-82
2023/12/03 05:11:10;;;;;;;18.92;8.10;;;-6.70;99.90;;;;;;4950926;29;20216;-82
2023/12/03 05:13:37;;;;;;;19.13;8.40;;;-6.80;99.90;;;;;;4952315;29;20222;-83
2023/12/03 05:16:05;;;;;;;22.10;10.07;;;-6.70;99.90;;;;;;4952021;29;20189;-81
2023/12/03 05:18:33;;;;;;;20.98;7.88;;;-6.90;99.90;;;;;;4952030;29;20504;-82
2023/12/03 05:21:02;;;;;;;19.08;7.88;;;-6.90;99.90;;;;;;4952170;29;20195;-83
2023/12/03 05:23:29;;;;;;;18.85;7.32;;;-7.00;99.90;;;;;;4951929;29;20196;-82
2023/12/03 05:25:57;;;;;;;18.23;7.85;;;-6.90;99.90;;;;;;4952019;29;20204;-82
2023/12/03 05:28:24;;;;;;;15.55;6.80;;;-7.00;99.90;;;;;;4952073;29;20206;-81
2023/12/03 05:30:52;;;;;;;17.83;7.57;;;-7.10;99.90;;;;;;4952129;29;20835;-82
2023/12/03 05:33:19;;;;;;;22.48;8.20;;;-7.00;99.90;;;;;;4951736;29;20192;-81
2023/12/03 05:35:47;;;;;;;17.60;7.32;;;-6.90;99.90;;;;;;4951518;29;20204;-82
2023/12/03 05:38:15;;;;;;;14.30;6.95;;;-7.10;99.90;;;;;;4934533;29;20196;-83
2023/12/03 05:40:43;;;;;;;18.50;7.07;;;-7.30;99.90;;;;;;4928129;29;20195;-82
2023/12/03 05:43:11;;;;;;;15.73;6.30;;;-7.10;99.90;;;;;;4948187;29;20193;-82
2023/12/03 05:45:38;;;;;;;16.48;6.45;;;-6.90;99.90;;;;;;4944991;29;20196;-82
2023/12/03 05:48:06;;;;;;;16.85;6.60;;;-7.10;99.90;;;;;;4949322;29;20678;-82
2023/12/03 05:50:35;;;;;;;20.95;7.40;;;-7.00;99.90;;;;;;4946938;29;20801;-82
2023/12/03 05:53:03;;;;;;;19.80;7.30;;;-7.00;99.90;;;;;;4947046;29;20199;-83
2023/12/03 05:55:30;;;;;;;18.33;6.90;;;-6.90;99.90;;;;;;4943302;29;20228;-82
2023/12/03 05:57:58;;;;;;;18.15;7.15;;;-7.00;99.90;;;;;;4951230;29;20185;-82
2023/12/03 06:00:25;;;;;;;18.70;7.40;;;-6.90;99.90;;;;;;4951315;29;20212;-83
2023/12/03 06:02:53;;;;;;;17.40;6.75;;;-7.00;99.90;;;;;;4950144;29;20564;-82
2023/12/03 06:05:20;;;;;;;18.58;6.82;;;-6.90;99.90;;;;;;4949419;28;20299;-81
2023/12/03 06:07:48;;;;;;;19.05;6.97;;;-6.80;99.90;;;;;;4933849;29;20218;-82
2023/12/03 06:10:15;;;;;;;14.43;6.78;;;-6.90;99.90;;;;;;4951158;29;20200;-82
2023/12/03 06:12:43;;;;;;;14.95;6.53;;;-6.90;99.90;;;;;;4951013;29;20273;-82
2023/12/03 06:15:10;;;;;;;16.15;6.38;;;-6.90;99.90;;;;;;4950905;29;20218;-82
2023/12/03 06:17:38;;;;;;;16.83;6.55;;;-7.00;99.90;;;;;;4950908;29;20184;-82
2023/12/03 06:20:06;;;;;;;19.00;6.60;;;-7.00;99.90;;;;;;4950855;29;20240;-81
2023/12/03 06:22:33;;;;;;;16.63;6.88;;;-7.00;99.90;;;;;;4951003;29;20647;-83
2023/12/03 06:25:01;;;;;;;17.23;6.82;;;-6.90;99.90;;;;;;4951099;29;20662;-81
2023/12/03 06:27:29;;;;;;;15.02;6.65;;;-6.90;99.90;;;;;;4949512;29;20257;-80
2023/12/03 06:29:57;;;;;;;17.20;6.90;;;-6.90;99.90;;;;;;4950695;29;20553;-83
2023/12/03 06:32:25;;;;;;;15.63;6.80;;;-6.80;99.90;;;;;;4951165;29;20200;-82
2023/12/03 06:34:52;;;;;;;19.45;6.78;;;-7.00;99.90;;;;;;4950728;29;20209;-82
2023/12/03 06:37:19;;;;;;;17.67;7.32;;;-7.00;99.90;;;;;;4950757;29;20185;-82
2023/12/03 06:39:47;;;;;;;16.08;5.97;;;-7.20;99.90;;;;;;4950864;29;20188;-82
2023/12/03 06:42:15;;;;;;;18.27;7.15;;;-7.10;99.90;;;;;;4951165;29;20259;-82
2023/12/03 06:44:42;;;;;;;17.80;6.18;;;-7.00;99.90;;;;;;4949743;29;20188;-82
2023/12/03 06:47:14;;;;;;;18.80;8.35;;;-6.90;99.90;;;;;;4951234;29;20235;-82
2023/12/03 06:49:42;;;;;;;15.63;6.07;;;-6.90;99.90;;;;;;4950963;29;20199;-82
2023/12/03 06:52:09;;;;;;;13.95;6.63;;;-7.00;99.90;;;;;;4950641;29;20236;-82
2023/12/03 06:54:37;;;;;;;16.75;6.95;;;-7.00;99.90;;;;;;4950870;29;20291;-82
2023/12/03 06:57:06;;;;;;;17.27;6.90;;;-7.00;99.90;;;;;;4949341;29;20196;-82
2023/12/03 06:59:33;;;;;;;18.23;7.13;;;-7.00;99.90;;;;;;4933578;29;20556;-82
2023/12/03 07:02:01;;;;;;;21.20;7.60;;;-6.90;99.90;;;;;;4965195;28;20243;-83
2023/12/03 07:04:28;;;;;;;22.05;8.45;;;-7.00;99.90;;;;;;4950458;29;20199;-82
2023/12/03 07:06:56;;;;;;;25.15;8.77;;;-6.90;99.90;;;;;;4949228;29;20196;-82
2023/12/03 07:09:27;;;;;;;18.90;6.78;;;-6.90;99.90;;;;;;4949678;29;20181;-83
2023/12/03 07:12:07;;;;;;;22.00;7.95;;;-7.10;99.90;;;;;;4950832;29;20208;-82
2023/12/03 07:14:35;;;;;;;21.35;8.20;;;-7.10;99.90;;;;;;4948991;29;20220;-82
2023/12/03 07:17:03;;;;;;;22.10;8.48;;;-7.00;99.90;;;;;;4951268;28;20192;-82
2023/12/03 07:19:30;;;;;;;21.58;8.32;;;-7.00;99.90;;;;;;4954289;29;20227;-83
2023/12/03 07:21:58;;;;;;;20.23;7.82;;;-6.90;99.90;;;;;;4952797;29;20279;-83
2023/12/03 07:24:25;;;;;;;26.70;8.73;;;-6.90;99.90;;;;;;4936814;29;20288;-83
2023/12/03 07:26:54;;;;;;;23.50;9.82;;;-7.00;99.90;;;;;;4952980;29;20193;-82
2023/12/03 07:29:21;;;;;;;21.52;8.48;;;-7.10;99.90;;;;;;4954433;29;20188;-82
2023/12/03 07:31:48;;;;;;;27.17;10.60;;;-7.10;99.90;;;;;;4952781;29;20656;-82
2023/12/03 07:34:16;;;;;;;26.00;9.90;;;-7.10;99.90;;;;;;4953972;29;20192;-82
2023/12/03 07:36:43;;;;;;;23.83;9.15;;;-7.20;99.90;;;;;;4954037;29;20196;-83
2023/12/03 07:39:11;;;;;;;25.80;8.88;;;-7.20;99.90;;;;;;4952519;29;20199;-81
2023/12/03 07:41:39;;;;;;;21.40;9.07;;;-7.20;99.90;;;;;;4953173;29;20224;-83
2023/12/03 07:44:06;;;;;;;23.15;9.02;;;-7.00;99.90;;;;;;4950940;29;20193;-83
2023/12/03 07:46:34;;;;;;;23.27;9.52;;;-7.20;99.90;;;;;;4948577;29;20209;-83
2023/12/03 07:49:01;;;;;;;19.48;8.43;;;-7.30;99.90;;;;;;4932479;29;20204;-82
2023/12/03 07:51:30;;;;;;;28.63;9.88;;;-7.20;99.90;;;;;;4949395;29;20228;-83
2023/12/03 07:53:58;;;;;;;20.58;8.45;;;-7.20;99.90;;;;;;4951171;29;20197;-82
2023/12/03 07:56:39;;;;;;;22.33;8.27;;;-7.20;99.90;;;;;;4953264;29;20209;-83
2023/12/03 07:59:07;;;;;;;24.85;8.50;;;-7.00;99.90;;;;;;4953738;29;20546;-83
2023/12/03 08:01:35;;;;;;;23.80;11.00;;;-6.90;99.90;;;;;;4953546;29;20217;-83
2023/12/03 08:04:03;;;;;;;19.00;7.95;;;-7.00;99.90;;;;;;4953455;29;20180;-82
2023/12/03 08:06:32;;;;;;;22.17;8.18;;;-7.00;99.90;;;;;;4935967;29;20629;-83
2023/12/03 08:09:00;;;;;;;22.02;8.93;;;-7.00;99.90;;;;;;4953705;29;20200;-83
2023/12/03 08:11:28;;;;;;;24.05;8.77;;;-7.00;99.90;;;;;;4953556;29;20659;-82
2023/12/03 08:13:55;;;;;;;21.48;8.68;;;-6.90;99.90;;;;;;4936414;29;20272;-82
2023/12/03 08:16:23;;;;;;;28.80;9.32;;;-7.00;99.90;;;;;;4953196;29;20212;-82
2023/12/03 08:18:50;;;;;;;19.02;8.10;;;-7.10;99.90;;;;;;4953005;29;20196;-83
2023/12/03 08:21:18;;;;;;;20.10;8.15;;;-7.20;99.90;;;;;;4967558;28;20750;-82
2023/12/03 08:23:45;;;;;;;18.27;7.20;;;-7.10;99.90;;;;;;4953058;29;20652;-81
2023/12/03 08:26:13;;;;;;;20.98;7.63;;;-7.10;99.90;;;;;;4935343;29;20873;-82
2023/12/03 08:28:40;;;;;;;21.60;8.13;;;-7.10;99.90;;;;;;4935744;29;20197;-83
2023/12/03 08:31:08;;;;;;;25.02;11.07;;;-7.10;99.90;;;;;;4967509;28;20196;-81
2023/12/03 08:33:35;;;;;;;16.95;7.45;;;-7.10;99.90;;;;;;4952225;29;20224;-81
2023/12/03 08:36:03;;;;;;;21.20;8.18;;;-7.20;99.90;;;;;;4952162;29;20232;-82
2023/12/03 08:38:30;;;;;;;21.75;7.90;;;-7.10;99.90;;;;;;4951270;29;20216;-82
2023/12/03 08:40:58;;;;;;;20.67;7.57;;;-7.20;99.90;;;;;;4935773;29;20185;-82
2023/12/03 08:43:25;;;;;;;17.20;7.35;;;-7.20;99.90;;;;;;4935300;29;20742;-82
2023/12/03 08:45:53;;;;;;;22.20;8.77;;;-7.10;99.90;;;;;;4952611;29;20184;-82
2023/12/03 08:48:20;;;;;;;18.88;8.05;;;-7.10;99.90;;;;;;4952629;29;20216;-81
2023/12/03 08:50:48;;;;;;;19.35;7.55;;;-7.00;99.90;;;;;;4952469;29;20227;-83
2023/12/03 08:53:15;;;;;;;19.65;9.85;;;-7.10;99.90;;;;;;4950900;29;20299;-82
2023/12/03 08:55:42;;;;;;;23.92;9.30;;;-7.10;99.90;;;;;;4952463;29;20239;-81
2023/12/03 08:58:10;;;;;;;22.08;7.85;;;-7.00;99.90;;;;;;4935266;29;20185;-82
2023/12/03 09:00:37;;;;;;;17.35;6.75;;;-7.00;99.90;;;;;;4952137;29;20219;-83
2023/12/03 09:03:05;;;;;;;21.00;7.68;;;-6.80;99.90;;;;;;4952143;29;20918;-83
2023/12/03 09:05:32;;;;;;;21.00;8.27;;;-6.80;99.90;;;;;;4919441;29;20201;-82
2023/12/03 09:08:00;;;;;;;21.42;7.85;;;-6.90;99.90;;;;;;4950979;29;20623;-81
2023/12/03 09:10:27;;;;;;;19.25;7.68;;;-6.90;99.90;;;;;;4918312;29;20205;-82
2023/12/03 09:12:55;;;;;;;19.20;8.65;;;-7.00;99.90;;;;;;4932960;29;20197;-82
2023/12/03 09:15:23;;;;;;;19.08;7.53;;;-7.00;99.90;;;;;;4931601;29;20210;-82
2023/12/03 09:17:50;;;;;;;18.98;7.30;;;-6.90;99.90;;;;;;4933041;29;20192;-82
2023/12/03 09:20:18;;;;;;;20.65;7.28;;;-6.90;99.90;;;;;;4915692;29;20563;-82
2023/12/03 09:22:46;;;;;;;21.05;7.70;;;-6.90;99.90;;;;;;4932949;29;20648;-82
2023/12/03 09:25:14;;;;;;;19.17;7.78;;;-6.90;99.90;;;;;;4915770;29;20216;-82
2023/12/03 09:27:42;;;;;;;14.95;5.70;;;-6.80;99.90;;;;;;4931349;29;20205;-82
2023/12/03 09:30:10;;;;;;;18.05;7.30;;;-6.80;99.90;;;;;;4931226;29;20632;-83
2023/12/03 09:32:38;;;;;;;15.38;6.07;;;-6.90;99.90;;;;;;4932475;29;20200;-82
2023/12/03 09:35:06;;;;;;;18.33;7.97;;;-7.00;99.90;;;;;;4915107;29;20213;-83
2023/12/03 09:37:33;;;;;;;18.85;7.55;;;-6.90;99.90;;;;;;4948599;29;20276;-82
2023/12/03 09:40:03;;;;;;;19.98;6.88;;;-6.80;99.90;;;;;;4951217;28;20248;-82
2023/12/03 09:42:35;;;;;;;17.95;6.88;;;-6.80;99.90;;;;;;4934415;29;20208;-82
2023/12/03 09:45:06;;;;;;;20.05;6.80;;;-6.70;99.90;;;;;;4950255;29;20614;-82
2023/12/03 09:47:37;;;;;;;19.15;7.00;;;-6.70;99.90;;;;;;4951589;29;20169;-81
2023/12/03 09:50:06;;;;;;;19.92;6.65;;;-6.70;99.90;;;;;;4950223;29;20185;-82
2023/12/03 09:52:36;;;;;;;19.25;6.93;;;-6.80;99.90;;;;;;4948850;29;20199;-83
2023/12/03 09:55:04;;;;;;;17.13;7.18;;;-6.70;99.90;;;;;;4951658;29;20180;-82
2023/12/03 09:57:35;;;;;;;20.67;7.90;;;-6.60;99.90;;;;;;4950211;29;20192;-82
2023/12/03 10:00:05;;;;;;;16.77;6.30;;;-6.50;99.90;;;;;;4951340;29;20188;-81
2023/12/03 10:02:39;;;;;;;16.38;6.55;;;-6.60;99.90;;;;;;4951093;29;20177;-82
2023/12/03 10:05:12;;;;;;;18.40;6.38;;;-6.60;99.90;;;;;;4934356;29;20173;-82
2023/12/03 10:07:40;;;;;;;17.83;7.00;;;-6.60;99.90;;;;;;4949886;29;20216;-82
2023/12/03 10:10:10;;;;;;;15.55;6.63;;;-6.50;99.90;;;;;;4930869;29;20730;-83
2023/12/03 10:12:42;;;;;;;17.15;6.78;;;-6.40;99.90;;;;;;4948249;29;20615;-83
2023/12/03 10:15:11;;;;;;;15.05;6.57;;;-6.50;99.90;;;;;;4933198;29;20271;-82
2023/12/03 10:17:39;;;;;;;13.55;6.40;;;-6.50;99.90;;;;;;4933922;29;20193;-83
2023/12/03 10:20:22;;;;;;;14.23;6.20;;;-6.40;99.90;;;;;;4932539;29;20269;-83
2023/12/03 10:22:51;;;;;;;15.77;6.80;;;-6.30;99.90;;;;;;4934116;29;20196;-83
2023/12/03 10:25:32;;;;;;;14.25;6.45;;;-6.40;99.90;;;;;;4925284;29;20670;-82
2023/12/03 10:28:06;;;;;;;17.88;7.97;;;-6.30;99.90;;;;;;4945784;29;20200;-83
2023/12/03 10:30:34;;;;;;;18.13;7.40;;;-6.40;99.90;;;;;;4931533;28;20200;-82
2023/12/03 10:33:01;;;;;;;15.95;6.80;;;-6.40;99.90;;;;;;4951259;29;20203;-83
2023/12/03 10:35:34;;;;;;;16.42;6.53;;;-6.40;99.90;;;;;;4933610;29;20260;-82
2023/12/03 10:38:07;;;;;;;18.17;6.43;;;-6.50;99.90;;;;;;4916968;29;20220;-83
2023/12/03 10:40:36;;;;;;;17.10;6.72;;;-6.60;99.90;;;;;;4931100;29;20173;-83
2023/12/03 10:43:03;;;;;;;19.30;7.15;;;-6.50;99.90;;;;;;4930377;29;20661;-83
2023/12/03 10:45:32;;;;;;;14.10;6.57;;;-6.50;99.90;;;;;;4926414;29;20713;-83
2023/12/03 10:48:01;;;;;;;17.02;6.80;;;-6.60;99.90;;;;;;4948653;29;21105;-83
2023/12/03 10:50:30;;;;;;;16.48;6.45;;;-6.60;99.90;;;;;;4933593;29;20235;-83
2023/12/03 10:53:02;;;;;;;17.30;6.90;;;-6.50;99.90;;;;;;4937959;29;20188;-83
2023/12/03 10:55:29;;;;;;;20.40;8.32;;;-6.50;99.90;;;;;;4957240;28;20200;-83
2023/12/03 10:58:03;;;;;;;22.90;9.30;;;-6.50;99.90;;;;;;4957801;28;20177;-82
2023/12/03 11:00:38;;;;;;;15.88;6.65;;;-6.50;99.90;;;;;;4957239;29;20192;-83
2023/12/03 11:03:15;;;;;;;16.33;6.95;;;-6.50;99.90;;;;;;4936218;29;20279;-83
2023/12/03 11:05:53;;;;;;;18.13;7.40;;;-6.50;99.90;;;;;;4939836;29;20571;-83
2023/12/03 11:08:22;;;;;;;20.05;8.48;;;-6.40;99.90;;;;;;4955225;29;20610;-82
2023/12/03 11:10:54;;;;;;;17.73;7.50;;;-6.50;99.90;;;;;;4940103;29;20208;-81
2023/12/03 11:13:26;;;;;;;18.73;7.68;;;-6.40;99.90;;;;;;4957071;29;20188;-82
2023/12/03 11:16:08;;;;;;;19.40;7.78;;;-6.40;99.90;;;;;;4955740;28;20215;-83
2023/12/03 11:18:43;;;;;;;17.48;6.85;;;-6.40;99.90;;;;;;4939592;29;20288;-84
2023/12/03 11:21:35;;;;;;;17.65;7.30;;;-6.40;99.90;;;;;;4940047;29;20168;-82
2023/12/03 11:24:05;;;;;;;18.30;6.68;;;-6.40;99.90;;;;;;4919684;29;20212;-82
2023/12/03 11:26:33;;;;;;;21.63;7.55;;;-6.40;99.90;;;;;;4937945;29;20173;-82
2023/12/03 11:29:01;;;;;;;25.13;7.78;;;-6.40;99.90;;;;;;4936752;29;20664;-82
2023/12/03 11:31:29;;;;;;;18.70;7.40;;;-6.40;99.90;;;;;;4936540;29;20208;-82
2023/12/03 11:34:00;;;;;;;17.45;7.30;;;-6.40;99.90;;;;;;4937497;29;20193;-83
2023/12/03 11:36:49;;;;;;;20.65;7.63;;;-6.40;99.90;;;;;;4920859;29;20674;-83
2023/12/03 11:39:23;;;;;;;16.95;7.60;;;-6.40;99.90;;;;;;4945938;28;20200;-83
2023/12/03 11:42:03;;;;;;;22.30;8.35;;;-6.40;99.90;;;;;;4920522;29;20196;-82
2023/12/03 11:44:30;;;;;;;24.70;7.30;;;-6.40;99.90;;;;;;4920742;29;20200;-82
2023/12/03 11:47:07;;;;;;;18.55;7.13;;;-6.40;99.90;;;;;;4920688;29;20913;-82
2023/12/03 11:49:36;;;;;;;18.17;6.47;;;-6.40;99.90;;;;;;4938195;29;20185;-83
2023/12/03 11:52:04;;;;;;;15.10;7.25;;;-6.40;99.90;;;;;;4937822;29;20236;-82
2023/12/03 11:55:05;;;;;;;18.40;7.45;;;-6.40;99.90;;;;;;4936551;29;20213;-82
2023/12/03 11:57:35;;;;;;;15.00;5.70;;;-6.40;99.90;;;;;;4920703;29;20790;-82
2023/12/03 12:00:06;;;;;;;18.55;7.07;;;-6.50;99.90;;;;;;4936089;29;20626;-82
2023/12/03 12:02:38;;;;;;;23.08;8.57;;;-6.50;99.90;;;;;;4921295;29;20173;-82
2023/12/03 12:05:07;;;;;;;16.98;7.18;;;-6.40;99.90;;;;;;4916704;29;20197;-82
2023/12/03 12:07:34;;;;;;;20.13;8.00;;;-6.40;99.90;;;;;;4917258;29;20580;-82
2023/12/03 12:10:02;;;;;;;15.60;6.65;;;-6.40;99.90;;;;;;4917642;29;20200;-83
2023/12/03 12:12:29;;;;;;;17.50;6.07;;;-6.50;99.90;;;;;;4934681;29;20623;-82
2023/12/03 12:14:57;;;;;;;18.02;7.07;;;-6.60;99.90;;;;;;4917408;29;20205;-82
2023/12/03 12:17:26;;;;;;;16.33;7.00;;;-6.70;99.90;;;;;;4933117;29;20213;-83
2023/12/03 12:19:55;;;;;;;17.08;6.53;;;-6.60;99.90;;;;;;4901455;29;20249;-83
2023/12/03 12:22:30;;;;;;;15.35;6.78;;;-6.50;99.90;;;;;;4932906;29;20731;-83
2023/12/03 12:24:57;;;;;;;15.13;7.10;;;-6.50;99.90;;;;;;4933085;29;20233;-84
2023/12/03 12:27:26;;;;;;;17.33;6.95;;;-6.50;99.90;;;;;;4934312;29;20268;-83
2023/12/03 12:29:54;;;;;;;17.60;7.03;;;-6.50;99.90;;;;;;4934290;29;20268;-82
2023/12/03 12:32:22;;;;;;;16.00;7.47;;;-6.50;99.90;;;;;;4934320;29;20189;-83
2023/12/03 12:35:01;;;;;;;19.77;8.07;;;-6.40;99.90;;;;;;4934272;29;20185;-84
2023/12/03 12:37:29;;;;;;;13.88;5.97;;;-6.40;99.90;;;;;;4917182;29;20201;-82
2023/12/03 12:40:11;;;;;;;16.42;7.10;;;-6.40;99.90;;;;;;4934095;29;20581;-84
2023/12/03 12:42:41;;;;;;;14.38;7.07;;;-6.40;99.90;;;;;;4915680;29;20189;-82